createdAt,value
2023-03-16T00:13:07.161Z,97.26
2023-03-16T00:15:39.770Z,97.70
2023-03-16T00:18:12.369Z,97.60
2023-03-16T00:20:45.004Z,97.46
2023-03-16T00:23:17.951Z,98.16
2023-03-16T00:25:53.872Z,97.18
2023-03-16T00:28:28.050Z,97.49
2023-03-16T00:31:14.883Z,97.25
2023-03-16T00:33:47.566Z,96.64
2023-03-16T00:36:20.142Z,96.72
2023-03-16T00:38:54.489Z,97.23
2023-03-16T00:41:27.130Z,96.70
2023-03-16T00:43:59.737Z,97.09
2023-03-16T00:46:32.920Z,97.40
2023-03-16T00:49:05.634Z,96.97
2023-03-16T00:51:38.203Z,96.15
2023-03-16T00:54:10.816Z,94.99
2023-03-16T00:56:43.598Z,94.83
2023-03-16T00:59:16.652Z,94.99
2023-03-16T01:01:49.253Z,95.04
2023-03-16T01:04:22.688Z,95.80
2023-03-16T01:09:26.776Z,95.18
2023-03-16T01:11:54.647Z,95.31
2023-03-16T01:14:22.237Z,96.15
2023-03-16T01:16:49.088Z,95.88
2023-03-16T01:21:47.028Z,95.55
2023-03-16T01:24:14.138Z,97.85
2023-03-16T01:26:40.681Z,98.30
2023-03-16T01:31:39.396Z,97.29
2023-03-16T01:34:05.898Z,98.39
2023-03-16T01:36:32.486Z,98.78
2023-03-16T01:39:00.115Z,99.00
2023-03-16T01:41:27.310Z,98.91
2023-03-16T01:43:58.476Z,98.81
2023-03-16T01:46:28.287Z,99.37
2023-03-16T01:49:23.933Z,99.33
2023-03-16T01:51:58.941Z,99.21
2023-03-16T01:54:28.079Z,99.52
2023-03-16T01:57:21.001Z,99.25
2023-03-16T01:59:50.310Z,99.48
2023-03-16T02:02:21.163Z,99.36
2023-03-16T02:04:53.550Z,98.39
2023-03-16T02:07:24.781Z,98.39
2023-03-16T02:09:56.438Z,98.43
2023-03-16T02:12:23.161Z,98.11
2023-03-16T02:14:51.128Z,97.95
2023-03-16T02:17:21.761Z,97.62
2023-03-16T02:20:24.360Z,97.43
2023-03-16T02:22:56.191Z,97.95
2023-03-16T02:25:29.335Z,97.57
2023-03-16T02:28:19.827Z,97.76
2023-03-16T02:30:47.406Z,98.29
2023-03-16T02:33:16.098Z,98.06
2023-03-16T02:35:42.621Z,97.22
2023-03-16T02:38:09.995Z,96.85
2023-03-16T02:40:38.778Z,97.29
2023-03-16T02:43:15.728Z,97.02
2023-03-16T02:46:05.386Z,96.49
2023-03-16T02:48:34.845Z,96.66
2023-03-16T02:51:01.947Z,96.61
2023-03-16T02:53:28.448Z,97.04
2023-03-16T02:55:55.355Z,97.40
2023-03-16T03:03:27.221Z,97.04
2023-03-16T03:05:53.816Z,96.78
2023-03-16T03:08:22.543Z,96.17
2023-03-16T03:10:49.647Z,96.74
2023-03-16T03:13:16.423Z,96.18
2023-03-16T03:15:43.000Z,96.13
2023-03-16T03:18:09.571Z,96.43
2023-03-16T03:20:36.130Z,96.05
2023-03-16T03:23:03.291Z,95.38
2023-03-16T03:28:05.721Z,95.68
2023-03-16T03:30:32.710Z,95.84
2023-03-16T03:32:59.317Z,95.99
2023-03-16T03:35:25.938Z,95.27
2023-03-16T03:37:52.620Z,94.62
2023-03-16T03:40:20.496Z,95.50
2023-03-16T03:42:47.433Z,95.53
2023-03-16T03:45:15.338Z,95.46
2023-03-16T03:47:43.427Z,94.71
2023-03-16T03:50:11.928Z,95.00
2023-03-16T03:52:38.447Z,94.42
2023-03-16T03:55:06.013Z,94.58
2023-03-16T03:57:33.149Z,94.52
2023-03-16T03:59:59.823Z,94.55
2023-03-16T04:02:26.559Z,94.70
2023-03-16T04:04:53.233Z,94.37
2023-03-16T04:07:19.844Z,93.89
2023-03-16T04:09:46.424Z,94.13
2023-03-16T04:12:13.016Z,94.56
2023-03-16T04:14:39.545Z,94.79
2023-03-16T04:17:06.176Z,94.80
2023-03-16T04:19:33.009Z,94.26
2023-03-16T04:21:59.627Z,94.24
2023-03-16T04:24:26.279Z,93.73
2023-03-16T04:26:54.387Z,93.67
2023-03-16T04:29:21.315Z,94.70
2023-03-16T04:31:48.007Z,94.91
2023-03-16T04:34:14.673Z,95.51
2023-03-16T04:36:42.048Z,95.63
2023-03-16T04:39:09.881Z,95.36
2023-03-16T04:41:36.966Z,95.73
2023-03-16T04:44:04.872Z,96.00
2023-03-16T04:46:31.801Z,95.63
2023-03-16T04:48:58.557Z,95.49
2023-03-16T04:51:26.171Z,94.86
2023-03-16T04:53:52.790Z,95.46
2023-03-16T04:56:19.810Z,95.30
2023-03-16T05:01:20.416Z,94.31
2023-03-16T05:03:47.045Z,93.90
2023-03-16T05:06:13.569Z,93.54
2023-03-16T05:08:40.646Z,94.30
2023-03-16T05:11:07.583Z,93.44
2023-03-16T05:13:34.465Z,93.56
2023-03-16T05:16:01.052Z,93.44
2023-03-16T05:21:05.008Z,92.67
2023-03-16T05:23:31.660Z,93.38
2023-03-16T05:26:01.183Z,93.65
2023-03-16T05:28:28.152Z,93.09
2023-03-16T05:33:32.847Z,92.63
2023-03-16T05:35:59.431Z,92.96
2023-03-16T05:38:27.762Z,93.59
2023-03-16T05:43:31.422Z,93.89
2023-03-16T05:45:58.290Z,93.68
2023-03-16T05:48:25.905Z,93.59
2023-03-16T05:50:52.848Z,93.85
2023-03-16T05:53:19.735Z,92.92
2023-03-16T05:55:52.138Z,92.50
2023-03-16T05:58:18.743Z,92.49
2023-03-16T06:00:45.273Z,92.04
2023-03-16T06:03:11.886Z,92.82
2023-03-16T06:05:38.735Z,92.58
2023-03-16T06:08:05.494Z,93.38
2023-03-16T06:10:32.062Z,92.93
2023-03-16T06:12:59.984Z,93.07
2023-03-16T06:15:26.890Z,93.96
2023-03-16T06:17:53.420Z,93.41
2023-03-16T06:20:20.260Z,93.52
2023-03-16T06:22:46.885Z,93.05
2023-03-16T06:25:14.727Z,92.80
2023-03-16T06:27:42.013Z,92.29
2023-03-16T06:30:12.113Z,92.08
2023-03-16T06:32:42.273Z,92.39
2023-03-16T06:35:09.855Z,92.43
2023-03-16T06:37:36.433Z,93.65
2023-03-16T06:40:04.068Z,93.39
2023-03-16T06:42:30.694Z,93.47
2023-03-16T06:44:57.375Z,93.26
2023-03-16T06:47:23.924Z,92.50
2023-03-16T06:49:51.895Z,92.27
2023-03-16T06:52:18.476Z,92.99
2023-03-16T06:54:45.019Z,92.97
2023-03-16T06:57:12.023Z,92.77
2023-03-16T06:59:38.530Z,91.67
2023-03-16T07:02:06.605Z,90.82
2023-03-16T07:04:34.273Z,91.26
2023-03-16T07:07:01.656Z,90.26
2023-03-16T07:09:29.347Z,89.39
2023-03-16T07:11:56.125Z,87.24
2023-03-16T07:14:24.822Z,86.42
2023-03-16T07:16:53.039Z,85.86
2023-03-16T07:21:57.910Z,84.56
2023-03-16T07:24:24.570Z,84.29
2023-03-16T07:26:51.169Z,83.68
2023-03-16T07:29:18.552Z,82.92
2023-03-16T07:31:45.335Z,83.52
2023-03-16T07:34:12.174Z,84.14
2023-03-16T07:36:38.789Z,82.31
2023-03-16T07:39:06.380Z,82.97
2023-03-16T07:41:32.961Z,79.63
2023-03-16T07:43:59.549Z,80.27
2023-03-16T07:46:26.140Z,78.97
2023-03-16T07:48:52.823Z,78.29
2023-03-16T07:51:19.378Z,78.30
2023-03-16T07:53:45.923Z,77.36
2023-03-16T07:56:12.655Z,76.81
2023-03-16T07:58:39.323Z,76.92
2023-03-16T08:01:06.070Z,76.76
2023-03-16T08:03:32.738Z,76.03
2023-03-16T08:05:59.484Z,75.85
2023-03-16T08:08:26.143Z,75.85
2023-03-16T08:10:54.143Z,74.64
2023-03-16T08:13:22.526Z,75.38
2023-03-16T08:16:02.198Z,75.47
2023-03-16T08:18:30.290Z,74.29
2023-03-16T08:20:57.850Z,74.86
2023-03-16T08:23:26.071Z,74.24
2023-03-16T08:25:54.288Z,73.52
2023-03-16T08:28:21.853Z,72.94
2023-03-16T08:30:51.170Z,71.92
2023-03-16T08:33:18.280Z,72.09
2023-03-16T08:35:45.577Z,70.99
2023-03-16T08:38:12.803Z,71.24
2023-03-16T08:40:42.296Z,69.37
2023-03-16T08:43:08.918Z,69.92
2023-03-16T08:45:35.481Z,68.85
2023-03-16T08:48:02.125Z,70.58
2023-03-16T08:50:28.915Z,68.89
2023-03-16T08:52:55.628Z,71.14
2023-03-16T08:55:22.204Z,67.64
2023-03-16T08:57:48.903Z,66.88
2023-03-16T09:00:15.896Z,67.72
2023-03-16T09:02:43.057Z,66.69
2023-03-16T09:05:11.784Z,68.45
2023-03-16T09:07:39.494Z,65.92
2023-03-16T09:10:07.559Z,66.17
2023-03-16T09:12:38.061Z,66.46
2023-03-16T09:15:05.838Z,65.88
2023-03-16T09:17:33.542Z,65.26
2023-03-16T09:20:11.490Z,65.59
2023-03-16T09:22:48.324Z,64.56
2023-03-16T09:25:15.668Z,62.96
2023-03-16T09:27:42.824Z,63.89
2023-03-16T09:30:10.447Z,62.44
2023-03-16T09:32:37.676Z,62.58
2023-03-16T09:35:06.396Z,61.34
2023-03-16T09:37:44.603Z,61.63
2023-03-16T09:40:28.631Z,61.01
2023-03-16T09:43:02.882Z,61.98
2023-03-16T09:45:38.712Z,60.64
2023-03-16T09:48:05.926Z,60.11
2023-03-16T09:50:58.811Z,59.38
2023-03-16T09:53:29.794Z,60.13
2023-03-16T09:56:40.651Z,57.92
2023-03-16T10:16:38.536Z,53.13
2023-03-16T10:19:14.536Z,54.32
2023-03-16T10:21:41.741Z,53.05
2023-03-16T10:24:38.086Z,52.08
2023-03-16T10:27:11.254Z,52.20
2023-03-16T10:29:38.784Z,52.09
2023-03-16T10:32:14.179Z,51.73
2023-03-16T10:34:41.704Z,51.24
2023-03-16T10:37:14.023Z,52.07
2023-03-16T10:39:43.509Z,51.65
2023-03-16T10:42:21.406Z,53.52
2023-03-16T10:44:48.311Z,51.93
2023-03-16T10:47:24.579Z,52.32
2023-03-16T10:49:51.636Z,50.47
2023-03-16T10:52:19.875Z,50.06
2023-03-16T10:55:11.106Z,50.60
2023-03-16T10:57:42.713Z,49.28
2023-03-16T11:00:14.961Z,50.17
2023-03-16T11:02:42.432Z,49.15
2023-03-16T11:08:15.163Z,49.72
2023-03-16T11:10:55.215Z,48.74
2023-03-16T11:13:24.836Z,48.71
2023-03-16T11:15:57.584Z,46.88
2023-03-16T11:18:40.925Z,46.66
2023-03-16T11:21:35.398Z,46.96
2023-03-16T11:24:04.647Z,46.50
2023-03-16T11:26:36.301Z,45.91
2023-03-16T11:29:26.837Z,45.77
2023-03-16T11:31:55.461Z,45.67
2023-03-16T11:34:31.201Z,45.12
2023-03-16T11:37:10.801Z,44.67
2023-03-16T11:39:53.097Z,44.45
2023-03-16T11:42:25.350Z,43.67
2023-03-16T11:45:01.853Z,44.68
2023-03-16T11:47:47.291Z,44.91
2023-03-16T11:53:23.768Z,44.77
2023-03-16T11:56:03.600Z,43.41
2023-03-16T11:58:36.067Z,43.32
2023-03-16T12:01:31.532Z,42.77
2023-03-16T12:04:04.094Z,42.96
2023-03-16T12:06:50.962Z,41.03
2023-03-16T12:09:34.038Z,41.45
2023-03-16T12:12:19.808Z,41.02
2023-03-16T12:15:03.521Z,41.47
2023-03-16T12:17:35.361Z,41.63
2023-03-16T12:20:07.302Z,41.88
2023-03-16T12:22:42.908Z,40.04
2023-03-16T12:25:22.424Z,41.50
2023-03-16T12:27:56.317Z,39.95
2023-03-16T12:30:41.342Z,40.68
2023-03-16T12:33:25.392Z,39.43
2023-03-16T12:36:33.204Z,40.90
2023-03-16T12:39:07.586Z,39.70
2023-03-16T12:42:05.015Z,39.49
2023-03-16T12:44:55.493Z,40.94
2023-03-16T12:47:43.866Z,40.15
2023-03-16T12:50:13.198Z,40.86
2023-03-16T12:52:44.773Z,41.40
2023-03-16T12:55:18.170Z,40.14
2023-03-16T12:57:46.194Z,39.91
2023-03-16T13:00:14.580Z,40.70
2023-03-16T13:02:56.224Z,41.45
2023-03-16T13:05:33.065Z,41.21
2023-03-16T13:08:14.862Z,40.59
2023-03-16T13:10:42.606Z,41.65
2023-03-16T13:13:18.387Z,41.02
2023-03-16T13:15:47.695Z,41.25
2023-03-16T13:18:17.501Z,41.13
2023-03-16T13:20:50.049Z,40.89
2023-03-16T13:23:24.729Z,41.25
2023-03-16T13:26:15.967Z,39.93
2023-03-16T13:28:46.187Z,41.00
2023-03-16T13:33:57.072Z,40.64
2023-03-16T13:36:27.264Z,40.86
2023-03-16T13:39:04.670Z,41.40
2023-03-16T13:41:31.518Z,40.67
2023-03-16T13:43:58.129Z,42.30
2023-03-16T13:46:29.622Z,41.80
2023-03-16T13:49:00.904Z,42.20
2023-03-16T13:51:31.119Z,41.02
2023-03-16T13:53:57.775Z,41.61
2023-03-16T13:56:29.021Z,42.90
2023-03-16T13:58:58.659Z,42.70
2023-03-16T14:01:28.390Z,41.85
2023-03-16T14:04:08.664Z,42.87
2023-03-16T14:06:36.825Z,43.47
2023-03-16T14:09:08.174Z,43.25
2023-03-16T14:11:34.990Z,43.29
2023-03-16T14:14:02.163Z,44.08
2023-03-16T14:16:32.265Z,44.17
2023-03-16T14:19:03.292Z,43.25
2023-03-16T14:21:34.411Z,43.36
2023-03-16T14:24:04.811Z,42.64
2023-03-16T14:26:46.593Z,43.05
2023-03-16T14:29:31.158Z,44.34
2023-03-16T14:32:00.067Z,43.74
2023-03-16T14:34:40.014Z,44.72
2023-03-16T14:37:12.669Z,44.85
2023-03-16T14:39:40.701Z,44.48
2023-03-16T14:42:19.041Z,45.22
2023-03-16T14:44:46.548Z,44.95
2023-03-16T14:47:23.926Z,45.46
2023-03-16T14:49:51.189Z,44.91
2023-03-16T14:52:23.030Z,45.25
2023-03-16T14:54:49.720Z,45.95
2023-03-16T14:57:17.579Z,45.44
2023-03-16T14:59:44.111Z,46.38
2023-03-16T15:02:17.848Z,46.86
2023-03-16T15:04:45.287Z,46.58
2023-03-16T15:07:38.116Z,46.42
2023-03-16T15:10:16.721Z,46.92
2023-03-16T15:12:50.607Z,46.26
2023-03-16T15:15:20.655Z,46.78
2023-03-16T15:17:48.324Z,46.58
2023-03-16T15:20:22.663Z,46.60
2023-03-16T15:22:51.972Z,46.66
2023-03-16T15:25:38.467Z,46.58
2023-03-16T15:28:17.661Z,46.93
2023-03-16T15:30:46.902Z,47.23
2023-03-16T15:33:14.226Z,47.84
2023-03-16T15:35:41.665Z,47.49
2023-03-16T15:38:16.830Z,47.54
2023-03-16T15:40:44.320Z,48.33
2023-03-16T15:43:16.909Z,49.19
2023-03-16T15:45:44.287Z,48.01
2023-03-16T15:48:12.112Z,48.39
2023-03-16T15:50:41.913Z,48.42
2023-03-16T15:53:29.295Z,48.30
2023-03-16T15:56:02.979Z,48.19
2023-03-16T15:58:31.745Z,47.69
2023-03-16T16:01:00.679Z,48.02
2023-03-16T16:03:27.549Z,47.76
2023-03-16T16:05:54.582Z,47.77
2023-03-16T16:08:21.660Z,47.79
2023-03-16T16:10:50.346Z,47.70
2023-03-16T16:15:59.422Z,47.76
2023-03-16T16:18:36.685Z,47.36
2023-03-16T16:21:05.283Z,47.32
2023-03-16T16:23:33.111Z,47.86
2023-03-16T16:26:08.269Z,46.98
2023-03-16T16:28:35.134Z,47.42
2023-03-16T16:31:02.247Z,47.82
2023-03-16T16:33:34.318Z,47.68
2023-03-16T16:36:03.723Z,47.55
2023-03-16T16:38:32.513Z,47.76
2023-03-16T16:41:07.038Z,47.20
2023-03-16T16:43:43.034Z,47.45
2023-03-16T16:46:16.702Z,47.21
2023-03-16T16:48:46.678Z,47.99
2023-03-16T16:51:21.763Z,47.89
2023-03-16T16:53:48.766Z,47.72
2023-03-16T16:56:18.511Z,48.05
2023-03-16T16:58:46.539Z,47.54
2023-03-16T17:01:28.413Z,48.05
2023-03-16T17:03:55.784Z,48.01
2023-03-16T17:06:22.565Z,48.62
2023-03-16T17:08:52.849Z,48.93
2023-03-16T17:11:31.014Z,49.03
2023-03-16T17:14:03.157Z,49.22
2023-03-16T17:16:32.414Z,49.40
2023-03-16T17:18:59.314Z,49.88
2023-03-16T17:21:30.048Z,49.96
2023-03-16T17:23:57.842Z,49.58
2023-03-16T17:26:28.978Z,50.16
2023-03-16T17:29:06.392Z,50.28
2023-03-16T17:31:39.630Z,50.29
2023-03-16T17:36:54.972Z,50.65
2023-03-16T17:42:13.323Z,50.94
2023-03-16T17:44:42.715Z,51.35
2023-03-16T17:47:18.340Z,51.69
2023-03-16T17:49:48.983Z,51.72
2023-03-16T17:52:18.954Z,52.20
2023-03-16T17:54:47.180Z,52.21
2023-03-16T17:57:19.757Z,52.06
2023-03-16T17:59:47.134Z,52.34
2023-03-16T18:05:21.759Z,52.64
2023-03-16T18:07:48.803Z,53.27
2023-03-16T18:10:21.604Z,53.50
2023-03-16T18:12:53.625Z,53.65
2023-03-16T18:18:00.871Z,54.27
2023-03-16T18:26:07.232Z,54.91
2023-03-16T18:28:35.018Z,55.17
2023-03-16T18:31:03.824Z,55.53
2023-03-16T18:33:33.742Z,56.11
2023-03-16T18:36:05.991Z,56.16
2023-03-16T18:38:33.766Z,56.05
2023-03-16T18:41:02.739Z,56.39
2023-03-16T18:43:29.846Z,56.67
2023-03-16T18:45:57.002Z,56.96
2023-03-16T18:48:23.548Z,57.65
2023-03-16T18:50:50.494Z,57.49
2023-03-16T18:53:17.866Z,57.75
2023-03-16T18:55:45.203Z,57.84
2023-03-16T18:58:17.195Z,57.88
2023-03-16T19:00:49.504Z,58.15
2023-03-16T19:05:58.680Z,58.46
2023-03-16T19:08:27.550Z,58.65
2023-03-16T19:10:57.162Z,59.11
2023-03-16T19:13:25.214Z,58.76
2023-03-16T19:15:54.080Z,59.09
2023-03-16T19:18:22.723Z,59.20
2023-03-16T19:20:51.169Z,59.08
2023-03-16T19:23:25.914Z,59.66
2023-03-16T19:25:54.461Z,59.78
2023-03-16T19:28:33.876Z,59.97
2023-03-16T19:31:02.318Z,59.85
2023-03-16T19:33:29.255Z,59.93
2023-03-16T19:35:57.157Z,60.13
2023-03-16T19:38:25.878Z,59.95
2023-03-16T19:40:56.865Z,59.22
2023-03-16T19:43:24.252Z,59.65
2023-03-16T19:45:51.566Z,59.93
2023-03-16T19:48:47.840Z,59.46
2023-03-16T19:53:54.454Z,59.45
2023-03-16T19:56:22.846Z,60.01
2023-03-16T19:58:53.661Z,59.42
2023-03-16T20:04:04.514Z,59.55
2023-03-16T20:06:33.362Z,59.64
2023-03-16T20:08:59.984Z,59.93
2023-03-16T20:11:31.965Z,59.82
2023-03-16T20:13:59.409Z,60.24
2023-03-16T20:16:30.144Z,60.48
2023-03-16T20:18:59.762Z,60.41
2023-03-16T20:21:27.651Z,60.84
2023-03-16T20:23:54.355Z,60.60
2023-03-16T20:26:24.503Z,60.67
2023-03-16T20:28:52.080Z,60.93
2023-03-16T20:31:23.901Z,60.88
2023-03-16T20:33:52.580Z,61.19
2023-03-16T20:36:20.775Z,61.94
2023-03-16T20:38:48.230Z,61.48
2023-03-16T20:41:22.575Z,61.59
2023-03-16T20:43:49.163Z,61.83
2023-03-16T20:46:19.859Z,61.41
2023-03-16T20:48:47.086Z,61.08
2023-03-16T20:51:15.564Z,61.44
2023-03-16T20:53:45.702Z,61.74
2023-03-16T20:56:28.772Z,62.03
2023-03-16T21:01:34.786Z,61.32
2023-03-16T21:04:01.491Z,61.01
2023-03-16T21:06:30.091Z,60.64
2023-03-16T21:14:17.806Z,60.71
2023-03-16T21:19:23.667Z,60.66
2023-03-16T21:21:50.977Z,61.08
2023-03-16T21:24:17.663Z,60.67
2023-03-16T21:26:45.345Z,60.92
2023-03-16T21:29:16.249Z,61.21
2023-03-16T21:34:24.376Z,61.42
2023-03-16T21:36:51.198Z,61.64
2023-03-16T21:39:20.599Z,61.93
2023-03-16T21:44:21.462Z,62.12
2023-03-16T21:46:48.228Z,62.10
2023-03-16T21:49:15.991Z,61.80
2023-03-16T21:51:43.448Z,61.53
2023-03-16T21:54:14.956Z,61.91
2023-03-16T21:59:13.756Z,61.73
2023-03-16T22:01:54.652Z,61.99
2023-03-16T22:04:27.944Z,61.98
2023-03-16T22:09:33.080Z,61.72
2023-03-16T22:11:59.739Z,62.78
2023-03-16T22:14:27.323Z,62.61
2023-03-16T22:16:53.964Z,62.61
2023-03-16T22:21:52.638Z,62.38
2023-03-16T22:26:58.246Z,62.67
2023-03-16T22:29:26.573Z,62.81
2023-03-16T22:31:59.650Z,62.48
2023-03-16T22:34:32.048Z,62.75
2023-03-16T22:37:01.341Z,62.69
2023-03-16T22:45:19.082Z,63.43
2023-03-16T22:50:21.832Z,65.11
2023-03-16T22:52:51.414Z,63.99
2023-03-16T22:55:39.464Z,63.67
2023-03-16T23:06:01.807Z,64.22
2023-03-16T23:08:28.713Z,64.07
2023-03-16T23:13:27.524Z,63.37
2023-03-16T23:15:55.486Z,63.79
2023-03-16T23:18:25.875Z,64.10
2023-03-16T23:20:52.968Z,64.21
2023-03-16T23:23:19.786Z,64.29
2023-03-16T23:25:47.862Z,64.93
2023-03-16T23:28:20.897Z,64.24
2023-03-16T23:30:47.985Z,64.89
2023-03-16T23:33:15.756Z,64.91
2023-03-16T23:35:46.464Z,64.80
2023-03-16T23:38:13.623Z,65.11
2023-03-16T23:40:40.489Z,64.88
2023-03-16T23:45:45.714Z,65.06
2023-03-16T23:50:52.186Z,64.81
2023-03-16T23:58:23.366Z,65.88
